Coral Princess — ZCDF4 — position and weather

sailwx.info

Track history (hours):
 
Tides and Currents Weather Stations Pressure Air Temp Water Temp Dewpoint Dewpoint Depression Visibility Wind Speed Wind Dir Waves Ship Positions

Coral Princess

Operator: Princess Cruises

Last reported at 2017-Mar-28 19:28 UTC. Time now 2017-Mar-28 19:50 UTC.
Position N 26°06' W 080°07'.

Type: Passenger vessel. MMSI: 310376000.

Date/timePositionNaut miles runAvg speedWind from/ knotsBaromVisibWave heightAir tempDewpointWater temp
2017-Mar-28 19:28N 26°06' W 080°07'0 0.0
2017-Mar-28 18:28N 26°06' W 080°07'0 0.0
2017-Mar-28 17:31N 26°06' W 080°07'0 0.0
2017-Mar-28 16:31N 26°06' W 080°07'0 0.0
2017-Mar-28 15:31N 26°06' W 080°07'0 0.0
2017-Mar-28 14:31N 26°06' W 080°07'0 0.0
2017-Mar-28 13:31N 26°06' W 080°07'0 0.0
2017-Mar-28 12:31N 26°06' W 080°07'0 0.0
2017-Mar-28 11:31N 26°06' W 080°07'0 0.0
2017-Mar-28 10:32N 26°06' W 080°07'6 6.6
2017-Mar-28 09:33N 26°05' W 080°00'1514.7
2017-Mar-28 08:33N 25°52' W 079°54'1615.7
2017-Mar-28 07:33N 25°37' W 079°49'1616.2
2017-Mar-28 06:33N 25°21' W 079°44'  
2017-Mar-24 03:32N 09°36' W 080°01'1616.0
2017-Mar-24 02:33N 09°22' W 079°54'0 0.4
2017-Mar-24 01:32N 09°22' W 079°54'0 0.0
2017-Mar-24 00:32N 09°22' W 079°54'0 0.0
2017-Mar-23 23:32N 09°22' W 079°54'0 0.0
2017-Mar-23 22:34N 09°22' W 079°54'2 1.9
2017-Mar-23 21:34N 09°23' W 079°55'6 6.0
2017-Mar-23 20:33N 09°17' W 079°55'0 0.4
2017-Mar-23 19:33N 09°16' W 079°55'1 0.7
2017-Mar-23 18:23N 09°15' W 079°55'0 0.1
2017-Mar-23 17:17N 09°15' W 079°55'0 0.0
2017-Mar-23 16:23N 09°15' W 079°55'0 0.0
2017-Mar-23 15:32N 09°15' W 079°55'0 0.0
2017-Mar-23 14:32N 09°15' W 079°55'0 0.0
2017-Mar-23 13:32N 09°15' W 079°55'1 1.0
2017-Mar-23 12:33N 09°16' W 079°55'0 0.5
2017-Mar-23 11:33N 09°17' W 079°55'4 4.0
2017-Mar-23 10:33N 09°21' W 079°55'9 9.2
2017-Mar-23 09:33N 09°30' W 079°54'38313.0
2017-Mar-22 04:00N 11°42' W 073°48'480 9.8 060 / 251013.3 25.524.126.0
2017-Mar-20 03:00N 19°42' W 074°06'44119.2 030 / 201016.910.8 25.022.026.0
2017-Mar-19 04:00N 25°00' W 079°36'2416.6 090 / 141022.310.8 21.516.626.0
2017-Mar-19 02:33N 25°24' W 079°39'1817.6
2017-Mar-19 01:33N 25°41' W 079°44'1717.0
2017-Mar-19 00:33N 25°56' W 079°53'1515.2
2017-Mar-18 23:33N 26°06' W 080°06'1 1.4
2017-Mar-18 22:33N 26°06' W 080°07'0 0.0
2017-Mar-18 21:33N 26°06' W 080°07'0 0.0
2017-Mar-18 20:33N 26°06' W 080°07'0 0.0
2017-Mar-18 19:33N 26°06' W 080°07'  
Track history (hours):
 
Tides and Currents Weather Stations Pressure Air Temp Water Temp Dewpoint Dewpoint Depression Visibility Wind Speed Wind Dir Waves Ship Positions

Coral Princess

Operator: Princess Cruises

Last reported at 2017-Mar-28 19:28 UTC. Time now 2017-Mar-28 19:50 UTC.
Position N 26°06' W 080°07'.

Type: Passenger vessel. MMSI: 310376000.

Date/timePositionNaut miles runAvg speedWind from/ knotsBaromVisibWave heightAir tempDewpointWater temp
2017-Mar-28 19:28N 26°06' W 080°07'0 0.0
2017-Mar-28 18:28N 26°06' W 080°07'0 0.0
2017-Mar-28 17:31N 26°06' W 080°07'0 0.0
2017-Mar-28 16:31N 26°06' W 080°07'0 0.0
2017-Mar-28 15:31N 26°06' W 080°07'0 0.0
2017-Mar-28 14:31N 26°06' W 080°07'0 0.0
2017-Mar-28 13:31N 26°06' W 080°07'0 0.0
2017-Mar-28 12:31N 26°06' W 080°07'0 0.0
2017-Mar-28 11:31N 26°06' W 080°07'0 0.0
2017-Mar-28 10:32N 26°06' W 080°07'6 6.6
2017-Mar-28 09:33N 26°05' W 080°00'1514.7
2017-Mar-28 08:33N 25°52' W 079°54'1615.7
2017-Mar-28 07:33N 25°37' W 079°49'1616.2
2017-Mar-28 06:33N 25°21' W 079°44'  
2017-Mar-24 03:32N 09°36' W 080°01'1616.0
2017-Mar-24 02:33N 09°22' W 079°54'0 0.4
2017-Mar-24 01:32N 09°22' W 079°54'0 0.0
2017-Mar-24 00:32N 09°22' W 079°54'0 0.0
2017-Mar-23 23:32N 09°22' W 079°54'0 0.0
2017-Mar-23 22:34N 09°22' W 079°54'2 1.9
2017-Mar-23 21:34N 09°23' W 079°55'6 6.0
2017-Mar-23 20:33N 09°17' W 079°55'0 0.4
2017-Mar-23 19:33N 09°16' W 079°55'1 0.7
2017-Mar-23 18:23N 09°15' W 079°55'0 0.1
2017-Mar-23 17:17N 09°15' W 079°55'0 0.0
2017-Mar-23 16:23N 09°15' W 079°55'0 0.0
2017-Mar-23 15:32N 09°15' W 079°55'0 0.0
2017-Mar-23 14:32N 09°15' W 079°55'0 0.0
2017-Mar-23 13:32N 09°15' W 079°55'1 1.0
2017-Mar-23 12:33N 09°16' W 079°55'0 0.5
2017-Mar-23 11:33N 09°17' W 079°55'4 4.0
2017-Mar-23 10:33N 09°21' W 079°55'9 9.2
2017-Mar-23 09:33N 09°30' W 079°54'38313.0
2017-Mar-22 04:00N 11°42' W 073°48'480 9.8 060 / 251013.3 25.524.126.0
2017-Mar-20 03:00N 19°42' W 074°06'44119.2 030 / 201016.910.8 25.022.026.0
2017-Mar-19 04:00N 25°00' W 079°36'2416.6 090 / 141022.310.8 21.516.626.0
2017-Mar-19 02:33N 25°24' W 079°39'1817.6
2017-Mar-19 01:33N 25°41' W 079°44'1717.0
2017-Mar-19 00:33N 25°56' W 079°53'1515.2
2017-Mar-18 23:33N 26°06' W 080°06'1 1.4
2017-Mar-18 22:33N 26°06' W 080°07'0 0.0
2017-Mar-18 21:33N 26°06' W 080°07'0 0.0
2017-Mar-18 20:33N 26°06' W 080°07'0 0.0
2017-Mar-18 19:33N 26°06' W 080°07'  

Dump ship's entire track history